createdAt,value
2022-10-19T00:01:15.491Z,14.50
2022-10-19T00:06:27.430Z,14.00
2022-10-19T00:09:01.592Z,16.05
2022-10-19T00:11:30.101Z,20.23
2022-10-19T00:14:00.692Z,13.38
2022-10-19T00:16:30.866Z,17.88
2022-10-19T00:18:59.946Z,14.73
2022-10-19T00:21:28.164Z,12.98
2022-10-19T00:23:55.882Z,13.00
2022-10-19T00:26:23.540Z,8.95
2022-10-19T00:28:54.390Z,10.88
2022-10-19T00:33:52.371Z,16.42
2022-10-19T00:36:23.847Z,18.38
2022-10-19T00:38:53.116Z,15.98
2022-10-19T00:41:22.029Z,19.38
2022-10-19T00:43:58.550Z,17.92
2022-10-19T00:46:28.346Z,18.48
2022-10-19T00:49:09.977Z,24.20
2022-10-19T00:51:43.945Z,24.00
2022-10-19T00:54:12.624Z,14.65
2022-10-19T00:56:42.446Z,19.05
2022-10-19T00:59:12.271Z,17.23
2022-10-19T01:01:40.054Z,17.35
2022-10-19T01:04:08.920Z,21.00
2022-10-19T01:06:37.281Z,16.30
2022-10-19T01:09:05.514Z,16.35
2022-10-19T01:11:54.364Z,10.50
2022-10-19T01:14:59.251Z,20.88
2022-10-19T01:18:05.560Z,11.90
2022-10-19T01:20:41.880Z,8.35
2022-10-19T01:23:15.372Z,12.75
2022-10-19T01:26:01.584Z,13.00
2022-10-19T01:28:50.837Z,12.45
2022-10-19T01:31:34.478Z,13.50
2022-10-19T01:34:15.317Z,19.73
2022-10-19T01:37:14.260Z,18.58
2022-10-19T01:40:13.032Z,18.23
2022-10-19T01:45:44.640Z,20.45
2022-10-19T01:48:21.001Z,16.95
2022-10-19T01:51:00.335Z,13.52
2022-10-19T01:53:32.610Z,18.70
2022-10-19T01:56:02.206Z,16.92
2022-10-19T01:58:34.973Z,16.73
2022-10-19T02:01:06.977Z,21.23
2022-10-19T02:03:36.515Z,14.10
2022-10-19T02:06:09.948Z,21.77
2022-10-19T02:08:48.384Z,34.88
2022-10-19T02:11:17.462Z,20.73
2022-10-19T02:13:48.485Z,19.15
2022-10-19T02:16:22.193Z,24.48
2022-10-19T02:18:52.309Z,13.15
2022-10-19T02:21:20.178Z,14.68
2022-10-19T02:23:49.425Z,21.10
2022-10-19T02:26:19.843Z,18.65
2022-10-19T02:28:48.288Z,12.82
2022-10-19T02:31:16.190Z,15.55
2022-10-19T02:33:44.247Z,17.25
2022-10-19T02:36:11.991Z,17.70
2022-10-19T02:38:41.901Z,21.05
2022-10-19T02:41:22.459Z,16.20
2022-10-19T02:43:54.923Z,47.90
2022-10-19T02:46:52.255Z,28.23
2022-10-19T02:49:23.740Z,19.77
2022-10-19T02:52:01.967Z,16.00
2022-10-19T02:54:29.814Z,19.17
2022-10-19T02:56:57.742Z,15.57
2022-10-19T02:59:26.243Z,16.63
2022-10-19T03:01:53.927Z,18.90
2022-10-19T03:04:21.543Z,14.57
2022-10-19T03:06:49.286Z,17.52
2022-10-19T03:09:16.949Z,22.17
2022-10-19T03:11:44.528Z,16.98
2022-10-19T03:14:13.512Z,31.88
2022-10-19T03:16:41.141Z,12.63
2022-10-19T03:19:08.714Z,23.48
2022-10-19T03:21:36.349Z,23.98
2022-10-19T03:24:04.128Z,21.50
2022-10-19T03:26:34.685Z,24.08
2022-10-19T03:29:02.519Z,24.55
2022-10-19T03:31:30.144Z,23.27
2022-10-19T03:33:57.765Z,31.55
2022-10-19T03:36:26.544Z,31.55
2022-10-19T03:39:00.000Z,39.42
2022-10-19T03:41:29.969Z,29.17
2022-10-19T03:46:28.645Z,28.17
2022-10-19T03:48:56.346Z,24.30
2022-10-19T03:51:26.513Z,31.52
2022-10-19T03:53:57.754Z,28.58
2022-10-19T03:56:31.025Z,21.83
2022-10-19T03:59:00.859Z,20.13
2022-10-19T04:01:34.592Z,14.87
2022-10-19T04:04:05.452Z,19.13
2022-10-19T04:06:38.313Z,22.63
2022-10-19T04:09:07.702Z,12.48
2022-10-19T04:11:36.182Z,17.42
2022-10-19T04:14:04.331Z,52.40
2022-10-19T04:16:33.244Z,21.98
2022-10-19T04:19:01.205Z,22.20
2022-10-19T04:21:35.151Z,17.35
2022-10-19T04:24:05.862Z,12.05
2022-10-19T04:26:34.733Z,22.27
2022-10-19T04:29:02.432Z,17.80
2022-10-19T04:31:30.441Z,14.65
2022-10-19T04:33:58.341Z,20.15
2022-10-19T04:36:26.017Z,18.95
2022-10-19T04:38:53.669Z,22.38
2022-10-19T04:41:22.915Z,22.02
2022-10-19T04:43:56.044Z,12.85
2022-10-19T04:46:23.797Z,22.60
2022-10-19T04:48:54.013Z,23.95
2022-10-19T04:51:22.639Z,19.83
2022-10-19T04:53:51.608Z,27.88
2022-10-19T04:56:26.586Z,14.45
2022-10-19T04:58:58.777Z,23.13
2022-10-19T05:01:31.287Z,18.73
2022-10-19T05:04:01.029Z,20.38
2022-10-19T05:06:29.629Z,21.00
2022-10-19T05:08:57.545Z,22.58
2022-10-19T05:11:28.067Z,24.58
2022-10-19T05:13:57.150Z,21.20
2022-10-19T05:16:25.902Z,21.67
2022-10-19T05:18:59.699Z,25.92
2022-10-19T05:21:28.992Z,21.40
2022-10-19T05:23:57.424Z,26.65
2022-10-19T05:26:26.871Z,26.02
2022-10-19T05:28:59.277Z,27.83
2022-10-19T05:31:29.577Z,26.88
2022-10-19T05:33:57.743Z,14.35
2022-10-19T05:36:29.441Z,33.03
2022-10-19T05:38:57.967Z,25.27
2022-10-19T05:41:26.459Z,19.45
2022-10-19T05:43:59.616Z,32.90
2022-10-19T05:46:28.814Z,22.02
2022-10-19T05:48:57.943Z,21.73
2022-10-19T05:51:29.156Z,23.38
2022-10-19T05:53:57.173Z,24.27
2022-10-19T05:56:27.789Z,27.88
2022-10-19T05:58:56.829Z,22.50
2022-10-19T06:01:24.735Z,34.00
2022-10-19T06:03:55.673Z,25.30
2022-10-19T06:06:26.950Z,24.02
2022-10-19T06:08:55.800Z,26.05
2022-10-19T06:11:29.709Z,31.55
2022-10-19T06:13:59.619Z,28.98
2022-10-19T06:16:27.690Z,32.97
2022-10-19T06:18:56.595Z,22.92
2022-10-19T06:21:26.907Z,27.25
2022-10-19T06:23:59.485Z,33.53
2022-10-19T06:26:27.911Z,34.00
2022-10-19T06:29:00.691Z,36.40
2022-10-19T06:31:36.395Z,30.25
2022-10-19T06:34:05.361Z,26.48
2022-10-19T06:36:34.305Z,29.98
2022-10-19T06:39:03.199Z,23.52
2022-10-19T06:41:32.396Z,30.60
2022-10-19T06:44:16.145Z,26.40
2022-10-19T06:46:54.098Z,31.42
2022-10-19T06:49:24.796Z,29.58
2022-10-19T06:51:58.619Z,15.55
2022-10-19T06:54:26.512Z,21.13
2022-10-19T06:56:54.520Z,25.08
2022-10-19T06:59:22.098Z,24.55
2022-10-19T07:01:49.802Z,26.38
2022-10-19T07:04:17.520Z,26.05
2022-10-19T07:06:45.253Z,23.30
2022-10-19T07:09:12.776Z,25.75
2022-10-19T07:11:45.522Z,27.48
2022-10-19T07:14:14.108Z,38.03
2022-10-19T07:16:44.675Z,26.85
2022-10-19T07:19:13.504Z,22.35
2022-10-19T07:21:45.955Z,27.08
2022-10-19T07:24:14.524Z,20.05
2022-10-19T07:26:42.575Z,21.92
2022-10-19T07:29:10.396Z,24.30
2022-10-19T07:31:38.009Z,29.10
2022-10-19T07:34:06.149Z,21.42
2022-10-19T07:36:34.861Z,28.92
2022-10-19T07:39:07.479Z,18.10
2022-10-19T07:41:42.024Z,19.55
2022-10-19T07:44:10.970Z,21.13
2022-10-19T07:46:41.703Z,14.75
2022-10-19T07:49:13.081Z,21.83
2022-10-19T07:51:41.031Z,20.13
2022-10-19T07:54:09.398Z,19.42
2022-10-19T07:56:40.334Z,34.53
2022-10-19T07:59:32.791Z,18.92
2022-10-19T08:02:16.363Z,23.42
2022-10-19T08:05:05.194Z,23.35
2022-10-19T08:07:38.986Z,27.40
2022-10-19T08:10:07.301Z,21.45
2022-10-19T08:12:37.888Z,18.58
2022-10-19T08:15:17.128Z,20.58
2022-10-19T08:18:24.129Z,18.15
2022-10-19T08:21:03.344Z,22.85
2022-10-19T08:23:50.279Z,28.65
2022-10-19T08:26:18.331Z,24.63
2022-10-19T08:28:49.056Z,24.60
2022-10-19T08:31:20.145Z,22.30
2022-10-19T08:33:50.438Z,21.73
2022-10-19T08:36:22.700Z,24.88
2022-10-19T08:38:51.055Z,17.90
2022-10-19T08:41:59.908Z,23.17
2022-10-19T08:45:06.164Z,18.92
2022-10-19T08:47:52.718Z,19.95
2022-10-19T08:50:44.973Z,19.48
2022-10-19T08:53:16.815Z,22.25
2022-10-19T08:56:04.663Z,21.30
2022-10-19T08:58:59.747Z,19.50
2022-10-19T09:01:48.391Z,29.27
2022-10-19T09:04:33.897Z,19.95
2022-10-19T09:07:24.881Z,19.77
2022-10-19T09:10:01.357Z,24.48
2022-10-19T09:12:57.763Z,23.08
2022-10-19T09:15:40.040Z,29.38
2022-10-19T09:18:22.763Z,26.15
2022-10-19T09:21:04.496Z,23.60
2022-10-19T09:23:55.358Z,16.88
2022-10-19T09:26:28.421Z,20.63
2022-10-19T09:29:16.759Z,24.83
2022-10-19T09:31:45.094Z,23.10
2022-10-19T09:34:21.231Z,17.75
2022-10-19T09:36:57.468Z,21.30
2022-10-19T09:39:29.541Z,23.67
2022-10-19T09:42:13.379Z,18.98
2022-10-19T09:44:41.486Z,20.42
2022-10-19T09:47:31.122Z,31.33
2022-10-19T09:50:19.392Z,23.13
2022-10-19T09:52:56.397Z,31.95
2022-10-19T09:55:28.913Z,22.70
2022-10-19T09:58:10.614Z,21.58
2022-10-19T10:00:42.827Z,28.40
2022-10-19T10:03:27.567Z,22.85
2022-10-19T10:06:04.211Z,22.70
2022-10-19T10:08:35.817Z,19.92
2022-10-19T10:11:09.200Z,21.65
2022-10-19T10:13:42.650Z,20.25
2022-10-19T10:16:23.419Z,22.77
2022-10-19T10:18:59.841Z,22.05
2022-10-19T10:21:50.235Z,22.00
2022-10-19T10:24:19.885Z,22.98
2022-10-19T10:26:50.747Z,21.63
2022-10-19T10:29:41.515Z,23.98
2022-10-19T10:32:19.627Z,19.65
2022-10-19T10:35:09.256Z,23.52
2022-10-19T10:37:49.620Z,20.67
2022-10-19T10:40:30.353Z,24.92
2022-10-19T10:45:34.433Z,25.55
2022-10-19T10:48:40.049Z,24.05
2022-10-19T10:51:20.866Z,24.20
2022-10-19T10:54:21.961Z,20.90
2022-10-19T10:57:12.874Z,26.23
2022-10-19T11:00:11.431Z,23.55
2022-10-19T11:02:46.644Z,26.92
2022-10-19T11:05:19.830Z,24.02
2022-10-19T11:07:58.407Z,18.45
2022-10-19T11:10:34.076Z,18.20
2022-10-19T11:13:26.038Z,22.23
2022-10-19T11:15:55.838Z,24.23
2022-10-19T11:18:43.248Z,25.60
2022-10-19T11:21:19.118Z,29.58
2022-10-19T11:24:09.244Z,29.77
2022-10-19T11:26:49.293Z,28.08
2022-10-19T11:29:37.359Z,20.48
2022-10-19T11:33:16.292Z,16.15
2022-10-19T11:36:09.643Z,17.20
2022-10-19T11:39:16.492Z,21.80
2022-10-19T11:42:31.862Z,17.95
2022-10-19T11:45:42.047Z,27.17
2022-10-19T11:55:21.807Z,24.35
2022-10-19T12:01:03.051Z,21.00
2022-10-19T12:03:40.197Z,22.25
2022-10-19T12:06:23.058Z,23.20
2022-10-19T12:09:13.348Z,22.20
2022-10-19T12:12:16.854Z,22.35
2022-10-19T12:14:50.172Z,24.27
2022-10-19T12:17:34.499Z,26.15
2022-10-19T12:20:17.476Z,20.83
2022-10-19T12:23:03.202Z,24.65
2022-10-19T12:25:31.126Z,21.75
2022-10-19T12:27:59.136Z,18.55
2022-10-19T12:30:27.186Z,22.05
2022-10-19T12:33:28.793Z,25.95
2022-10-19T12:36:16.917Z,19.35
2022-10-19T12:39:00.072Z,23.33
2022-10-19T12:42:11.089Z,20.98
2022-10-19T12:48:14.685Z,21.20
2022-10-19T12:50:56.957Z,27.50
2022-10-19T12:53:52.440Z,22.02
2022-10-19T12:56:36.324Z,24.40
2022-10-19T12:59:51.347Z,23.30
2022-10-19T13:03:42.875Z,25.58
2022-10-19T13:09:32.214Z,20.83
2022-10-19T13:12:25.849Z,22.17
2022-10-19T13:14:58.385Z,25.15
2022-10-19T13:17:58.069Z,22.90
2022-10-19T13:20:27.896Z,26.13
2022-10-19T13:23:04.781Z,19.85
2022-10-19T13:25:43.011Z,22.17
2022-10-19T13:28:32.139Z,22.55
2022-10-19T13:31:16.460Z,21.98
2022-10-19T13:33:49.053Z,28.40
2022-10-19T13:36:22.633Z,22.65
2022-10-19T13:39:20.058Z,20.05
2022-10-19T13:41:55.341Z,21.05
2022-10-19T13:44:35.473Z,25.27
2022-10-19T13:47:18.475Z,25.50
2022-10-19T13:50:22.705Z,23.52
2022-10-19T13:53:22.600Z,19.52
2022-10-19T13:56:15.873Z,25.42
2022-10-19T13:59:34.610Z,22.35
2022-10-19T14:02:22.740Z,26.55
2022-10-19T14:05:34.921Z,21.98
2022-10-19T14:08:15.028Z,23.80
2022-10-19T14:11:00.573Z,26.35
2022-10-19T14:13:32.386Z,18.80
2022-10-19T14:16:19.319Z,27.43
2022-10-19T14:18:55.764Z,23.63
2022-10-19T14:21:38.396Z,24.45
2022-10-19T14:24:34.676Z,24.17
2022-10-19T14:27:05.063Z,27.92
2022-10-19T14:29:48.033Z,21.00
2022-10-19T14:32:19.089Z,29.95
2022-10-19T14:34:51.002Z,17.17
2022-10-19T14:37:20.789Z,22.20
2022-10-19T14:40:11.370Z,23.75
2022-10-19T14:42:44.608Z,23.50
2022-10-19T14:45:17.743Z,21.92
2022-10-19T14:48:00.078Z,24.40
2022-10-19T14:50:49.789Z,28.02
2022-10-19T14:54:00.036Z,24.85
2022-10-19T14:56:32.343Z,26.83
2022-10-19T14:59:31.238Z,23.02
2022-10-19T15:02:03.899Z,26.17
2022-10-19T15:04:38.427Z,30.02
2022-10-19T15:07:29.762Z,24.58
2022-10-19T15:10:12.154Z,27.30
2022-10-19T15:12:51.347Z,24.88
2022-10-19T15:15:26.872Z,29.80
2022-10-19T15:17:58.294Z,28.08
2022-10-19T15:20:44.058Z,30.02
2022-10-19T15:23:40.999Z,33.72
2022-10-19T15:26:27.065Z,28.10
2022-10-19T15:29:07.195Z,29.00
2022-10-19T15:31:35.313Z,27.05
2022-10-19T15:34:06.203Z,25.60
2022-10-19T15:36:34.428Z,30.10
2022-10-19T15:39:18.293Z,27.58
2022-10-19T15:41:53.461Z,31.05
2022-10-19T15:44:44.396Z,24.73
2022-10-19T15:47:23.605Z,29.00
2022-10-19T15:49:53.169Z,25.63
2022-10-19T15:52:22.353Z,23.85
2022-10-19T15:54:56.650Z,29.77
2022-10-19T15:57:34.022Z,28.55
2022-10-19T16:00:08.361Z,25.77
2022-10-19T16:02:36.823Z,34.30
2022-10-19T16:05:08.957Z,30.65
2022-10-19T16:07:40.999Z,21.83
2022-10-19T16:10:20.047Z,29.83
2022-10-19T16:12:48.094Z,21.55
2022-10-19T16:15:22.592Z,28.63
2022-10-19T16:17:59.276Z,29.55
2022-10-19T16:20:29.302Z,32.20
2022-10-19T16:22:58.102Z,23.15
2022-10-19T16:25:26.502Z,29.15
2022-10-19T16:28:19.283Z,31.38
2022-10-19T16:30:55.320Z,25.88
2022-10-19T16:33:24.410Z,32.33
2022-10-19T16:35:54.217Z,28.05
2022-10-19T16:38:24.050Z,28.23
2022-10-19T16:40:52.230Z,29.30
2022-10-19T16:43:21.802Z,26.73
2022-10-19T16:45:50.452Z,28.73
2022-10-19T16:48:24.163Z,26.88
2022-10-19T16:51:18.932Z,36.00
2022-10-19T16:53:49.718Z,25.42
2022-10-19T16:56:18.309Z,34.42
2022-10-19T16:59:09.848Z,28.67
2022-10-19T17:01:39.190Z,25.83
2022-10-19T19:05:55.757Z,36.45
2022-10-19T19:08:31.545Z,30.17
2022-10-19T19:14:54.354Z,41.08
2022-10-19T19:17:35.007Z,37.80
2022-10-19T19:21:11.384Z,36.13
2022-10-19T19:25:19.544Z,32.95
2022-10-19T19:27:53.192Z,31.45
2022-10-19T19:30:27.874Z,25.33
2022-10-19T19:32:58.343Z,35.58
2022-10-19T19:35:26.315Z,37.30
2022-10-19T19:37:54.063Z,32.90
2022-10-19T19:40:25.846Z,34.22
2022-10-19T19:42:54.125Z,39.13
2022-10-19T19:45:21.988Z,33.10
2022-10-19T19:47:49.891Z,35.35
2022-10-19T19:50:27.269Z,36.47
2022-10-19T19:52:59.842Z,32.35
2022-10-19T19:55:28.685Z,35.75
2022-10-19T19:57:56.719Z,35.55
2022-10-19T20:00:30.195Z,37.58
2022-10-19T20:05:47.493Z,34.72
2022-10-19T20:08:15.510Z,38.90
2022-10-19T20:10:46.122Z,39.13
2022-10-19T20:15:46.167Z,35.42
2022-10-19T20:18:15.523Z,35.85
2022-10-19T20:20:45.511Z,46.65
2022-10-19T20:23:23.515Z,34.38
2022-10-19T20:26:00.097Z,40.78
2022-10-19T20:28:32.953Z,40.08
2022-10-19T20:31:03.549Z,36.15
2022-10-19T20:33:37.291Z,41.65
2022-10-19T20:36:25.843Z,36.28
2022-10-19T20:39:12.174Z,33.92
2022-10-19T20:41:40.095Z,38.08
2022-10-19T20:44:08.182Z,31.85
2022-10-19T20:46:47.674Z,36.58
2022-10-19T20:49:16.515Z,36.10
2022-10-19T20:51:54.329Z,38.03
2022-10-19T20:54:27.929Z,41.55
2022-10-19T20:56:55.762Z,39.05
2022-10-19T20:59:42.334Z,40.70
2022-10-19T21:02:12.165Z,34.45
2022-10-19T21:04:40.294Z,39.58
2022-10-19T21:07:11.852Z,41.25
2022-10-19T21:09:39.548Z,41.97
2022-10-19T21:12:07.533Z,39.17
2022-10-19T21:14:38.727Z,38.70
2022-10-19T21:17:06.597Z,33.55
2022-10-19T21:19:38.139Z,40.50
2022-10-19T21:24:57.953Z,42.22
2022-10-19T21:27:25.869Z,34.78
2022-10-19T21:29:53.839Z,38.67
2022-10-19T21:32:22.103Z,36.60
2022-10-19T21:34:50.019Z,35.72
2022-10-19T21:37:17.778Z,38.33
2022-10-19T21:39:48.792Z,34.60
2022-10-19T21:42:16.623Z,37.22
2022-10-19T21:44:47.186Z,41.15
2022-10-19T21:47:16.042Z,32.22
2022-10-19T21:49:45.485Z,34.33
2022-10-19T21:52:16.084Z,33.78
2022-10-19T21:54:45.046Z,36.88
2022-10-19T21:57:12.877Z,42.38
2022-10-19T21:59:42.077Z,43.42
2022-10-19T22:02:10.040Z,36.03
2022-10-19T22:04:38.818Z,41.45
2022-10-19T22:07:09.479Z,36.50
2022-10-19T22:09:37.943Z,36.47
2022-10-19T22:12:05.781Z,38.00
2022-10-19T22:14:41.166Z,36.40
2022-10-19T22:17:09.272Z,34.30
2022-10-19T22:19:37.191Z,41.45
2022-10-19T22:22:04.876Z,36.35
2022-10-19T22:24:34.818Z,33.85
2022-10-19T22:27:02.579Z,38.08
2022-10-19T22:29:30.310Z,35.80
2022-10-19T22:31:58.076Z,37.88
2022-10-19T22:34:36.589Z,37.55
2022-10-19T22:37:06.916Z,39.75
2022-10-19T22:39:35.907Z,38.70
2022-10-19T22:42:22.414Z,43.58
2022-10-19T22:44:50.530Z,37.47
2022-10-19T22:47:19.506Z,35.88
2022-10-19T22:49:51.849Z,36.13
2022-10-19T22:52:26.164Z,36.65
2022-10-19T22:54:54.544Z,35.38
2022-10-19T22:57:22.733Z,35.67
2022-10-19T22:59:54.376Z,36.25
2022-10-19T23:02:31.101Z,42.03
2022-10-19T23:04:59.971Z,36.15
2022-10-19T23:07:27.742Z,38.60
2022-10-19T23:09:55.482Z,35.10
2022-10-19T23:12:29.090Z,41.67
2022-10-19T23:14:56.839Z,40.67
2022-10-19T23:17:24.617Z,36.50
2022-10-19T23:19:52.444Z,41.15
2022-10-19T23:22:21.417Z,39.20
2022-10-19T23:24:49.804Z,41.83
2022-10-19T23:27:17.533Z,39.95
2022-10-19T23:29:45.415Z,42.78
2022-10-19T23:32:16.313Z,44.72
2022-10-19T23:34:47.486Z,45.05
2022-10-19T23:37:17.981Z,37.70
2022-10-19T23:39:54.131Z,46.13
2022-10-19T23:42:22.113Z,36.63
2022-10-19T23:44:53.306Z,41.50
2022-10-19T23:47:21.360Z,44.72
2022-10-19T23:49:49.321Z,34.67
2022-10-19T23:52:17.402Z,37.15
2022-10-19T23:54:46.873Z,41.85
2022-10-19T23:57:14.847Z,43.55
2022-10-19T23:59:42.761Z,42.60
